sensor_id;sensor_type;location;lat;lon;timestamp;pressure;altitude;pressure_sealevel;temperature;humidity
73341;BME280;61578;52.002;5.468;2022-10-16T00:00:28;100953.59;;;11.71;89.71
73341;BME280;61578;52.002;5.468;2022-10-16T00:01:04;100889.88;;;11.30;90.11
73341;BME280;61578;52.002;5.468;2022-10-16T00:01:37;100956.41;;;11.70;89.49
73341;BME280;61578;52.002;5.468;2022-10-16T00:02:08;100942.53;;;11.65;90.17
73341;BME280;61578;52.002;5.468;2022-10-16T00:02:38;100869.31;;;11.07;90.35
73341;BME280;61578;52.002;5.468;2022-10-16T00:03:10;100952.03;;;11.69;90.63
73341;BME280;61578;52.002;5.468;2022-10-16T00:03:42;100954.47;;;11.72;90.45
73341;BME280;61578;52.002;5.468;2022-10-16T00:04:14;100933.47;;;11.55;90.21
73341;BME280;61578;52.002;5.468;2022-10-16T00:04:45;100949.28;;;11.70;90.43
73341;BME280;61578;52.002;5.468;2022-10-16T00:05:15;100932.41;;;11.57;89.92
73341;BME280;61578;52.002;5.468;2022-10-16T00:05:46;100954.47;;;11.72;90.25
73341;BME280;61578;52.002;5.468;2022-10-16T00:06:18;100956.16;;;11.73;90.29
73341;BME280;61578;52.002;5.468;2022-10-16T00:06:50;100954.69;;;11.69;90.10
73341;BME280;61578;52.002;5.468;2022-10-16T00:07:21;100954.69;;;11.69;90.51
73341;BME280;61578;52.002;5.468;2022-10-16T00:07:52;100928.25;;;11.53;90.51
73341;BME280;61578;52.002;5.468;2022-10-16T00:08:22;100954.47;;;11.72;90.76
73341;BME280;61578;52.002;5.468;2022-10-16T00:08:53;100963.13;;;11.75;90.74
73341;BME280;61578;52.002;5.468;2022-10-16T00:09:24;100956.84;;;11.76;90.85
73341;BME280;61578;52.002;5.468;2022-10-16T00:09:55;100939.97;;;11.63;90.08
73341;BME280;61578;52.002;5.468;2022-10-16T00:10:25;100962.28;;;11.75;90.33
73341;BME280;61578;52.002;5.468;2022-10-16T00:11:02;100953.59;;;11.71;90.51
73341;BME280;61578;52.002;5.468;2022-10-16T00:11:37;100960.19;;;11.80;90.67
73341;BME280;61578;52.002;5.468;2022-10-16T00:12:08;100960.03;;;11.82;90.84
73341;BME280;61578;52.002;5.468;2022-10-16T00:12:39;100839.00;;;11.10;90.44
73341;BME280;61578;52.002;5.468;2022-10-16T00:13:10;100957.19;;;11.85;90.54
73341;BME280;61578;52.002;5.468;2022-10-16T00:13:43;100960.69;;;11.85;90.48
73341;BME280;61578;52.002;5.468;2022-10-16T00:14:15;100922.31;;;11.62;90.12
73341;BME280;61578;52.002;5.468;2022-10-16T00:14:46;100959.75;;;11.86;90.46
73341;BME280;61578;52.002;5.468;2022-10-16T00:15:16;100961.47;;;11.87;90.48
73341;BME280;61578;52.002;5.468;2022-10-16T00:15:47;100946.13;;;11.78;90.17
73341;BME280;61578;52.002;5.468;2022-10-16T00:16:18;100942.09;;;11.71;90.33
73341;BME280;61578;52.002;5.468;2022-10-16T00:16:49;100946.13;;;11.78;90.00
73341;BME280;61578;52.002;5.468;2022-10-16T00:17:20;100972.75;;;11.91;89.83
73341;BME280;61578;52.002;5.468;2022-10-16T00:17:50;100946.13;;;11.78;89.97
73341;BME280;61578;52.002;5.468;2022-10-16T00:18:21;100957.72;;;11.77;89.90
73341;BME280;61578;52.002;5.468;2022-10-16T00:18:52;100931.97;;;11.77;89.75
73341;BME280;61578;52.002;5.468;2022-10-16T00:19:22;100955.09;;;11.90;89.42
73341;BME280;61578;52.002;5.468;2022-10-16T00:19:53;100961.47;;;11.87;89.84
73341;BME280;61578;52.002;5.468;2022-10-16T00:20:24;100940.03;;;11.76;89.83
73341;BME280;61578;52.002;5.468;2022-10-16T00:20:55;100954.22;;;11.89;89.76
73341;BME280;61578;52.002;5.468;2022-10-16T00:21:33;100926.81;;;11.74;89.98
73341;BME280;61578;52.002;5.468;2022-10-16T00:22:03;100935.25;;;11.81;89.86
73341;BME280;61578;52.002;5.468;2022-10-16T00:22:34;100949.44;;;11.94;89.97
73341;BME280;61578;52.002;5.468;2022-10-16T00:23:05;100959.78;;;11.99;89.73
73341;BME280;61578;52.002;5.468;2022-10-16T00:23:36;100960.63;;;11.99;89.73
73341;BME280;61578;52.002;5.468;2022-10-16T00:24:09;100933.91;;;11.88;89.55
73341;BME280;61578;52.002;5.468;2022-10-16T00:24:40;100931.84;;;11.92;89.58
73341;BME280;61578;52.002;5.468;2022-10-16T00:25:11;100947.75;;;12.06;89.64
73341;BME280;61578;52.002;5.468;2022-10-16T00:25:41;100947.84;;;12.04;89.10
73341;BME280;61578;52.002;5.468;2022-10-16T00:26:16;100925.59;;;11.80;89.37
73341;BME280;61578;52.002;5.468;2022-10-16T00:26:50;100934.97;;;11.98;89.82
73341;BME280;61578;52.002;5.468;2022-10-16T00:27:21;100956.59;;;12.06;89.71
73341;BME280;61578;52.002;5.468;2022-10-16T00:27:52;100859.44;;;11.49;88.94
73341;BME280;61578;52.002;5.468;2022-10-16T00:28:23;100926.44;;;11.93;89.64
73341;BME280;61578;52.002;5.468;2022-10-16T00:28:54;100942.44;;;12.06;89.49
73341;BME280;61578;52.002;5.468;2022-10-16T00:29:25;100944.22;;;12.05;89.63
73341;BME280;61578;52.002;5.468;2022-10-16T00:29:55;100903.75;;;11.75;89.79
73341;BME280;61578;52.002;5.468;2022-10-16T00:30:26;100940.06;;;12.01;89.38
73341;BME280;61578;52.002;5.468;2022-10-16T00:30:58;100978.09;;;12.16;89.50
73341;BME280;61578;52.002;5.468;2022-10-16T00:31:28;100937.31;;;12.03;89.26
73341;BME280;61578;52.002;5.468;2022-10-16T00:31:59;100939.75;;;12.06;89.22
73341;BME280;61578;52.002;5.468;2022-10-16T00:32:30;100946.03;;;12.05;89.26
73341;BME280;61578;52.002;5.468;2022-10-16T00:33:01;100957.56;;;12.18;89.53
73341;BME280;61578;52.002;5.468;2022-10-16T00:33:31;100934.34;;;12.07;89.34
73341;BME280;61578;52.002;5.468;2022-10-16T00:34:02;100941.38;;;12.08;89.42
73341;BME280;61578;52.002;5.468;2022-10-16T00:34:33;100946.81;;;12.20;89.00
73341;BME280;61578;52.002;5.468;2022-10-16T00:35:04;100951.78;;;12.11;89.15
73341;BME280;61578;52.002;5.468;2022-10-16T00:35:35;100940.41;;;12.09;89.34
73341;BME280;61578;52.002;5.468;2022-10-16T00:36:10;100953.19;;;12.17;89.13
73341;BME280;61578;52.002;5.468;2022-10-16T00:36:43;100878.88;;;11.76;89.28
73341;BME280;61578;52.002;5.468;2022-10-16T00:37:13;100946.16;;;12.16;89.54
73341;BME280;61578;52.002;5.468;2022-10-16T00:37:44;100929.22;;;12.04;89.50
73341;BME280;61578;52.002;5.468;2022-10-16T00:38:15;100912.19;;;11.94;89.40
73341;BME280;61578;52.002;5.468;2022-10-16T00:38:47;100955.41;;;12.23;89.15
73341;BME280;61578;52.002;5.468;2022-10-16T00:39:23;100954.34;;;12.26;89.36
73341;BME280;61578;52.002;5.468;2022-10-16T00:39:53;100950.84;;;12.25;89.45
73341;BME280;61578;52.002;5.468;2022-10-16T00:40:24;100954.16;;;12.29;89.34
73341;BME280;61578;52.002;5.468;2022-10-16T00:40:55;100923.25;;;12.13;88.92
73341;BME280;61578;52.002;5.468;2022-10-16T00:41:27;100960.09;;;12.32;89.09
73341;BME280;61578;52.002;5.468;2022-10-16T00:41:58;100958.19;;;12.34;88.93
73341;BME280;61578;52.002;5.468;2022-10-16T00:42:29;100952.75;;;12.36;88.98
73341;BME280;61578;52.002;5.468;2022-10-16T00:43:00;100943.50;;;12.29;89.18
73341;BME280;61578;52.002;5.468;2022-10-16T00:44:43;100948.69;;;12.43;88.57
73341;BME280;61578;52.002;5.468;2022-10-16T00:45:20;100933.91;;;12.39;88.75
73341;BME280;61578;52.002;5.468;2022-10-16T00:45:51;100953.81;;;12.46;89.12
73341;BME280;61578;52.002;5.468;2022-10-16T00:46:28;100907.28;;;12.13;89.40
73341;BME280;61578;52.002;5.468;2022-10-16T00:47:06;100948.41;;;12.47;89.29
73341;BME280;61578;52.002;5.468;2022-10-16T00:47:46;100951.91;;;12.48;89.22
73341;BME280;61578;52.002;5.468;2022-10-16T00:48:20;100949.25;;;12.48;89.08
73341;BME280;61578;52.002;5.468;2022-10-16T00:49:42;100910.91;;;12.25;89.18
73341;BME280;61578;52.002;5.468;2022-10-16T00:50:26;100921.56;;;12.38;88.63
73341;BME280;61578;52.002;5.468;2022-10-16T00:51:00;100949.44;;;12.58;88.75
73341;BME280;61578;52.002;5.468;2022-10-16T00:51:39;100951.06;;;12.60;88.70
73341;BME280;61578;52.002;5.468;2022-10-16T00:52:13;100912.63;;;12.39;88.42
73341;BME280;61578;52.002;5.468;2022-10-16T00:52:48;100961.47;;;12.63;88.36
73341;BME280;61578;52.002;5.468;2022-10-16T00:53:21;100946.91;;;12.56;88.50
73341;BME280;61578;52.002;5.468;2022-10-16T00:53:55;100955.19;;;12.64;88.45
73341;BME280;61578;52.002;5.468;2022-10-16T00:54:30;100963.28;;;12.63;88.37
73341;BME280;61578;52.002;5.468;2022-10-16T00:55:04;100963.06;;;12.66;88.45
73341;BME280;61578;52.002;5.468;2022-10-16T00:55:36;100963.28;;;12.63;88.56
73341;BME280;61578;52.002;5.468;2022-10-16T00:56:07;100955.94;;;12.66;88.38
73341;BME280;61578;52.002;5.468;2022-10-16T00:56:38;100951.56;;;12.65;88.23
73341;BME280;61578;52.002;5.468;2022-10-16T00:57:09;100941.66;;;12.54;88.56
73341;BME280;61578;52.002;5.468;2022-10-16T00:57:41;100948.69;;;12.68;88.41
73341;BME280;61578;52.002;5.468;2022-10-16T00:58:14;100958.06;;;12.74;88.12
73341;BME280;61578;52.002;5.468;2022-10-16T00:58:44;100866.00;;;12.21;88.13
73341;BME280;61578;52.002;5.468;2022-10-16T00:59:37;100912.72;;;12.50;87.68
73341;BME280;61578;52.002;5.468;2022-10-16T01:00:12;100957.63;;;12.80;87.82
73341;BME280;61578;52.002;5.468;2022-10-16T01:00:46;100915.69;;;12.58;87.77
73341;BME280;61578;52.002;5.468;2022-10-16T01:01:17;100941.66;;;12.80;87.82
73341;BME280;61578;52.002;5.468;2022-10-16T01:01:48;100939.50;;;12.72;87.55
73341;BME280;61578;52.002;5.468;2022-10-16T01:02:19;100921.41;;;12.65;87.99
73341;BME280;61578;52.002;5.468;2022-10-16T01:02:58;100962.41;;;12.87;88.01
73341;BME280;61578;52.002;5.468;2022-10-16T01:03:33;100973.28;;;12.84;87.62
73341;BME280;61578;52.002;5.468;2022-10-16T01:04:06;100948.34;;;12.73;87.97
73341;BME280;61578;52.002;5.468;2022-10-16T01:04:44;100951.44;;;12.79;88.27
73341;BME280;61578;52.002;5.468;2022-10-16T01:05:21;100949.00;;;12.76;88.22
73341;BME280;61578;52.002;5.468;2022-10-16T01:06:12;100972.31;;;12.85;87.82
73341;BME280;61578;52.002;5.468;2022-10-16T01:08:13;100972.75;;;12.92;87.27
73341;BME280;61578;52.002;5.468;2022-10-16T01:09:31;100960.03;;;12.96;87.46
73341;BME280;61578;52.002;5.468;2022-10-16T01:11:29;100930.78;;;12.70;87.32
73341;BME280;61578;52.002;5.468;2022-10-16T01:13:12;100942.91;;;12.87;86.91
73341;BME280;61578;52.002;5.468;2022-10-16T01:13:55;100965.66;;;13.04;87.55
73341;BME280;61578;52.002;5.468;2022-10-16T01:15:41;100926.06;;;12.86;87.51
73341;BME280;61578;52.002;5.468;2022-10-16T01:16:40;100942.59;;;12.92;86.97
73341;BME280;61578;52.002;5.468;2022-10-16T01:17:46;100959.03;;;13.09;86.67
73341;BME280;61578;52.002;5.468;2022-10-16T01:18:32;100937.53;;;13.00;86.85
73341;BME280;61578;52.002;5.468;2022-10-16T01:19:31;100907.03;;;12.67;87.24
73341;BME280;61578;52.002;5.468;2022-10-16T01:20:28;100966.84;;;13.12;86.46
73341;BME280;61578;52.002;5.468;2022-10-16T01:21:05;100917.09;;;12.87;87.06
73341;BME280;61578;52.002;5.468;2022-10-16T01:21:43;100961.50;;;13.12;87.28
73341;BME280;61578;52.002;5.468;2022-10-16T01:22:20;100962.25;;;13.14;87.18
73341;BME280;61578;52.002;5.468;2022-10-16T01:23:47;100963.09;;;13.15;86.91
73341;BME280;61578;52.002;5.468;2022-10-16T01:24:20;100958.63;;;13.15;86.85
73341;BME280;61578;52.002;5.468;2022-10-16T01:25:08;100936.34;;;13.04;86.46
73341;BME280;61578;52.002;5.468;2022-10-16T01:26:13;100923.47;;;12.98;85.90
73341;BME280;61578;52.002;5.468;2022-10-16T01:27:46;100883.25;;;12.77;85.77
73341;BME280;61578;52.002;5.468;2022-10-16T01:28:23;100964.66;;;13.30;85.89
73341;BME280;61578;52.002;5.468;2022-10-16T01:30:18;100931.09;;;13.15;86.05
73341;BME280;61578;52.002;5.468;2022-10-16T01:30:58;100905.19;;;13.04;86.22
73341;BME280;61578;52.002;5.468;2022-10-16T01:31:37;100944.63;;;13.24;86.54
73341;BME280;61578;52.002;5.468;2022-10-16T01:32:23;100935.06;;;13.22;86.02
73341;BME280;61578;52.002;5.468;2022-10-16T01:33:09;100958.13;;;13.34;85.61
73341;BME280;61578;52.002;5.468;2022-10-16T01:34:38;100956.66;;;13.30;86.11
73341;BME280;61578;52.002;5.468;2022-10-16T01:34:50;100963.44;;;13.34;85.76
73341;BME280;61578;52.002;5.468;2022-10-16T01:35:41;100966.97;;;13.35;86.28
73341;BME280;61578;52.002;5.468;2022-10-16T01:36:23;100943.03;;;13.22;85.83
73341;BME280;61578;52.002;5.468;2022-10-16T01:37:13;100950.13;;;13.34;85.39
73341;BME280;61578;52.002;5.468;2022-10-16T01:37:52;100915.84;;;13.17;85.60
73341;BME280;61578;52.002;5.468;2022-10-16T01:38:38;100938.09;;;13.29;84.94
73341;BME280;61578;52.002;5.468;2022-10-16T01:39:14;100900.72;;;13.05;85.17
73341;BME280;61578;52.002;5.468;2022-10-16T01:39:58;100944.34;;;13.40;85.02
73341;BME280;61578;52.002;5.468;2022-10-16T01:40:35;100922.00;;;13.30;85.18
73341;BME280;61578;52.002;5.468;2022-10-16T01:41:21;100917.50;;;13.31;84.93
73341;BME280;61578;52.002;5.468;2022-10-16T01:42:08;100951.78;;;13.48;85.53
73341;BME280;61578;52.002;5.468;2022-10-16T01:42:52;100939.69;;;13.31;85.25
73341;BME280;61578;52.002;5.468;2022-10-16T01:43:47;100957.69;;;13.40;85.68
73341;BME280;61578;52.002;5.468;2022-10-16T01:44:31;100934.81;;;13.25;85.39
73341;BME280;61578;52.002;5.468;2022-10-16T01:45:06;100931.91;;;13.28;85.69
73341;BME280;61578;52.002;5.468;2022-10-16T01:45:44;100935.94;;;13.34;85.59
73341;BME280;61578;52.002;5.468;2022-10-16T01:46:20;100939.00;;;13.40;85.89
73341;BME280;61578;52.002;5.468;2022-10-16T01:46:54;100921.72;;;13.22;85.57
73341;BME280;61578;52.002;5.468;2022-10-16T01:47:27;100945.41;;;13.38;86.00
73341;BME280;61578;52.002;5.468;2022-10-16T01:48:02;100946.38;;;13.37;86.63
73341;BME280;61578;52.002;5.468;2022-10-16T01:48:39;100958.75;;;13.38;86.15
73341;BME280;61578;52.002;5.468;2022-10-16T01:49:13;100939.69;;;13.31;86.16
73341;BME280;61578;52.002;5.468;2022-10-16T01:49:46;100935.06;;;13.22;86.22
73341;BME280;61578;52.002;5.468;2022-10-16T01:50:20;100953.53;;;13.36;86.03
73341;BME280;61578;52.002;5.468;2022-10-16T01:50:57;100949.63;;;13.29;85.75
73341;BME280;61578;52.002;5.468;2022-10-16T01:51:38;100923.28;;;13.24;86.04
73341;BME280;61578;52.002;5.468;2022-10-16T01:52:21;100952.34;;;13.40;85.72
73341;BME280;61578;52.002;5.468;2022-10-16T01:52:58;100941.25;;;13.34;85.35
73341;BME280;61578;52.002;5.468;2022-10-16T01:53:29;100938.16;;;13.40;85.53
73341;BME280;61578;52.002;5.468;2022-10-16T01:54:02;100943.28;;;13.43;85.57
73341;BME280;61578;52.002;5.468;2022-10-16T01:54:40;100950.28;;;13.44;85.43
73341;BME280;61578;52.002;5.468;2022-10-16T01:55:20;100921.88;;;13.32;85.27
73341;BME280;61578;52.002;5.468;2022-10-16T01:56:00;100957.31;;;13.45;85.31
73341;BME280;61578;52.002;5.468;2022-10-16T01:56:35;100929.88;;;13.32;85.57
73341;BME280;61578;52.002;5.468;2022-10-16T01:57:10;100930.59;;;13.34;85.47
73341;BME280;61578;52.002;5.468;2022-10-16T01:57:47;100902.63;;;13.15;85.60
73341;BME280;61578;52.002;5.468;2022-10-16T01:58:27;100950.44;;;13.42;85.47
73341;BME280;61578;52.002;5.468;2022-10-16T01:59:10;100945.22;;;13.41;85.74
73341;BME280;61578;52.002;5.468;2022-10-16T01:59:48;100941.91;;;13.37;85.94
73341;BME280;61578;52.002;5.468;2022-10-16T02:00:23;100910.19;;;13.21;85.83
73341;BME280;61578;52.002;5.468;2022-10-16T02:00:56;100930.09;;;13.29;86.17
73341;BME280;61578;52.002;5.468;2022-10-16T02:01:31;100926.91;;;13.23;85.86
73341;BME280;61578;52.002;5.468;2022-10-16T02:02:09;100902.63;;;13.15;86.03
73341;BME280;61578;52.002;5.468;2022-10-16T02:02:46;100926.38;;;13.31;85.66
73341;BME280;61578;52.002;5.468;2022-10-16T02:03:20;100899.00;;;13.16;85.65
73341;BME280;61578;52.002;5.468;2022-10-16T02:03:54;100924.56;;;13.32;85.27
73341;BME280;61578;52.002;5.468;2022-10-16T02:04:34;100929.81;;;13.44;85.17
73341;BME280;61578;52.002;5.468;2022-10-16T02:05:31;100915.06;;;13.27;85.01
73341;BME280;61578;52.002;5.468;2022-10-16T02:06:09;100876.53;;;13.08;84.82
73341;BME280;61578;52.002;5.468;2022-10-16T02:06:40;100915.97;;;13.39;84.96
73341;BME280;61578;52.002;5.468;2022-10-16T02:07:12;100933.00;;;13.49;85.12
73341;BME280;61578;52.002;5.468;2022-10-16T02:07:43;100935.66;;;13.49;84.92
73341;BME280;61578;52.002;5.468;2022-10-16T02:08:14;100936.50;;;13.50;85.39
73341;BME280;61578;52.002;5.468;2022-10-16T02:08:45;100944.50;;;13.50;85.18
73341;BME280;61578;52.002;5.468;2022-10-16T02:09:16;100917.50;;;13.31;84.78
73341;BME280;61578;52.002;5.468;2022-10-16T02:09:47;100930.28;;;13.38;85.15
73341;BME280;61578;52.002;5.468;2022-10-16T02:10:18;100947.06;;;13.51;85.17
73341;BME280;61578;52.002;5.468;2022-10-16T02:10:49;100924.44;;;13.33;84.93
73341;BME280;61578;52.002;5.468;2022-10-16T02:11:19;100924.19;;;13.36;85.44
73341;BME280;61578;52.002;5.468;2022-10-16T02:11:54;100919.66;;;13.25;85.57
73341;BME280;61578;52.002;5.468;2022-10-16T02:12:36;100956.25;;;13.47;85.26
73341;BME280;61578;52.002;5.468;2022-10-16T02:13:21;100951.50;;;13.40;85.42
73341;BME280;61578;52.002;5.468;2022-10-16T02:14:05;100961.09;;;13.42;86.15
73341;BME280;61578;52.002;5.468;2022-10-16T02:14:39;100960.47;;;13.39;86.18
73341;BME280;61578;52.002;5.468;2022-10-16T02:15:10;100967.50;;;13.40;85.67
73341;BME280;61578;52.002;5.468;2022-10-16T02:15:40;100953.78;;;13.33;85.91
73341;BME280;61578;52.002;5.468;2022-10-16T02:16:13;100886.97;;;12.74;85.83
73341;BME280;61578;52.002;5.468;2022-10-16T02:16:46;100963.25;;;13.37;86.35
73341;BME280;61578;52.002;5.468;2022-10-16T02:17:17;100963.34;;;13.36;86.45
73341;BME280;61578;52.002;5.468;2022-10-16T02:17:48;100952.00;;;13.21;86.19
73341;BME280;61578;52.002;5.468;2022-10-16T02:18:19;100846.06;;;12.63;85.96
73341;BME280;61578;52.002;5.468;2022-10-16T02:18:50;100962.59;;;13.34;86.15
73341;BME280;61578;52.002;5.468;2022-10-16T02:19:22;100954.44;;;13.24;86.03
73341;BME280;61578;52.002;5.468;2022-10-16T02:19:55;100974.25;;;13.33;85.78
73341;BME280;61578;52.002;5.468;2022-10-16T02:20:35;100958.88;;;13.36;85.89
73341;BME280;61578;52.002;5.468;2022-10-16T02:22:03;100950.66;;;13.39;84.96
73341;BME280;61578;52.002;5.468;2022-10-16T02:22:42;100968.84;;;13.45;85.35
73341;BME280;61578;52.002;5.468;2022-10-16T02:23:26;100969.81;;;13.44;85.55
73341;BME280;61578;52.002;5.468;2022-10-16T02:25:17;100967.78;;;13.48;85.36
73341;BME280;61578;52.002;5.468;2022-10-16T02:25:54;100939.28;;;13.24;85.25
73341;BME280;61578;52.002;5.468;2022-10-16T02:26:42;100976.84;;;13.45;85.34
73341;BME280;61578;52.002;5.468;2022-10-16T02:27:53;100955.75;;;13.42;85.32
73341;BME280;61578;52.002;5.468;2022-10-16T02:28:45;100978.44;;;13.48;85.33
73341;BME280;61578;52.002;5.468;2022-10-16T02:29:25;100968.00;;;13.45;85.04
73341;BME280;61578;52.002;5.468;2022-10-16T02:30:13;100976.53;;;13.50;85.04
73341;BME280;61578;52.002;5.468;2022-10-16T02:31:01;100973.00;;;13.49;85.36
73341;BME280;61578;52.002;5.468;2022-10-16T02:31:41;100944.06;;;13.32;85.04
73341;BME280;61578;52.002;5.468;2022-10-16T02:32:23;100954.06;;;13.41;85.67
73341;BME280;61578;52.002;5.468;2022-10-16T02:33:03;100965.13;;;13.48;85.54
73341;BME280;61578;52.002;5.468;2022-10-16T02:33:41;100938.97;;;13.29;85.70
73341;BME280;61578;52.002;5.468;2022-10-16T02:34:16;100966.06;;;13.47;85.75
73341;BME280;61578;52.002;5.468;2022-10-16T02:34:51;100928.75;;;13.23;85.64
73341;BME280;61578;52.002;5.468;2022-10-16T02:35:23;100947.81;;;13.30;85.55
73341;BME280;61578;52.002;5.468;2022-10-16T02:35:57;100934.09;;;13.23;85.84
73341;BME280;61578;52.002;5.468;2022-10-16T02:36:29;100940.88;;;13.27;85.50
73341;BME280;61578;52.002;5.468;2022-10-16T02:37:02;100966.28;;;13.44;85.90
73341;BME280;61578;52.002;5.468;2022-10-16T02:37:37;100952.47;;;13.39;85.53
73341;BME280;61578;52.002;5.468;2022-10-16T02:38:11;100947.97;;;13.39;85.79
73341;BME280;61578;52.002;5.468;2022-10-16T02:38:45;100957.78;;;13.39;85.92
73341;BME280;61578;52.002;5.468;2022-10-16T02:39:18;100946.75;;;13.32;86.04
73341;BME280;61578;52.002;5.468;2022-10-16T02:39:50;100927.25;;;13.19;85.70
73341;BME280;61578;52.002;5.468;2022-10-16T02:40:22;100973.47;;;13.43;86.13
73341;BME280;61578;52.002;5.468;2022-10-16T02:40:54;100907.75;;;13.06;86.19
73341;BME280;61578;52.002;5.468;2022-10-16T02:41:26;100953.88;;;13.32;86.30
73341;BME280;61578;52.002;5.468;2022-10-16T02:41:56;100961.22;;;13.41;85.71
73341;BME280;61578;52.002;5.468;2022-10-16T02:42:31;100921.28;;;13.15;85.72
73341;BME280;61578;52.002;5.468;2022-10-16T02:43:05;100963.88;;;13.41;85.86
73341;BME280;61578;52.002;5.468;2022-10-16T02:43:35;100971.88;;;13.41;86.36
73341;BME280;61578;52.002;5.468;2022-10-16T02:44:06;100967.50;;;13.40;86.30
73341;BME280;61578;52.002;5.468;2022-10-16T02:44:37;100935.38;;;13.17;86.33
73341;BME280;61578;52.002;5.468;2022-10-16T02:45:10;100956.78;;;13.29;86.42
73341;BME280;61578;52.002;5.468;2022-10-16T02:45:42;100938.88;;;13.18;86.33
73341;BME280;61578;52.002;5.468;2022-10-16T02:46:12;100969.31;;;13.39;85.88
73341;BME280;61578;52.002;5.468;2022-10-16T02:46:43;100946.31;;;13.25;86.10
73341;BME280;61578;52.002;5.468;2022-10-16T02:47:14;100885.75;;;12.91;85.97
73341;BME280;61578;52.002;5.468;2022-10-16T02:47:45;100950.47;;;13.30;86.18
73341;BME280;61578;52.002;5.468;2022-10-16T02:48:15;100965.69;;;13.40;86.28
73341;BME280;61578;52.002;5.468;2022-10-16T02:48:46;100959.94;;;13.34;86.41
73341;BME280;61578;52.002;5.468;2022-10-16T02:49:17;100954.00;;;13.30;86.32
73341;BME280;61578;52.002;5.468;2022-10-16T02:49:48;100978.28;;;13.38;86.65
73341;BME280;61578;52.002;5.468;2022-10-16T02:50:19;100966.66;;;13.39;86.13
73341;BME280;61578;52.002;5.468;2022-10-16T02:50:50;100950.19;;;13.21;86.27
73341;BME280;61578;52.002;5.468;2022-10-16T02:51:21;100952.00;;;13.21;85.95
73341;BME280;61578;52.002;5.468;2022-10-16T02:51:52;100982.53;;;13.41;85.95
73341;BME280;61578;52.002;5.468;2022-10-16T02:52:22;100968.47;;;13.39;86.05
73341;BME280;61578;52.002;5.468;2022-10-16T02:52:53;100979.78;;;13.42;86.38
73341;BME280;61578;52.002;5.468;2022-10-16T02:53:24;100986.81;;;13.43;86.02
73341;BME280;61578;52.002;5.468;2022-10-16T02:53:54;100962.38;;;13.37;85.63
73341;BME280;61578;52.002;5.468;2022-10-16T02:54:25;100955.34;;;13.36;86.00
73341;BME280;61578;52.002;5.468;2022-10-16T02:54:56;100908.00;;;13.03;85.82
73341;BME280;61578;52.002;5.468;2022-10-16T02:55:26;100966.97;;;13.35;86.02
73341;BME280;61578;52.002;5.468;2022-10-16T02:55:58;100978.06;;;13.41;85.87
73341;BME280;61578;52.002;5.468;2022-10-16T02:56:28;100974.53;;;13.41;85.43
73341;BME280;61578;52.002;5.468;2022-10-16T02:57:00;100925.25;;;13.10;85.95
73341;BME280;61578;52.002;5.468;2022-10-16T02:57:30;100972.09;;;13.38;85.71
73341;BME280;61578;52.002;5.468;2022-10-16T02:58:02;100942.63;;;13.15;85.82
73341;BME280;61578;52.002;5.468;2022-10-16T02:58:33;100972.66;;;13.30;85.79
73341;BME280;61578;52.002;5.468;2022-10-16T02:59:04;100985.78;;;13.33;86.07
73341;BME280;61578;52.002;5.468;2022-10-16T02:59:35;100907.50;;;12.85;85.89
73341;BME280;61578;52.002;5.468;2022-10-16T03:00:08;100976.59;;;13.24;85.85
73341;BME280;61578;52.002;5.468;2022-10-16T03:00:39;100946.69;;;13.08;86.27
73341;BME280;61578;52.002;5.468;2022-10-16T03:01:10;100978.97;;;13.29;86.03
73341;BME280;61578;52.002;5.468;2022-10-16T03:01:42;100941.16;;;12.99;86.04
73341;BME280;61578;52.002;5.468;2022-10-16T03:02:13;100973.50;;;13.31;85.93
73341;BME280;61578;52.002;5.468;2022-10-16T03:02:44;100966.38;;;13.31;85.96
73341;BME280;61578;52.002;5.468;2022-10-16T03:03:14;100964.78;;;13.29;86.14
73341;BME280;61578;52.002;5.468;2022-10-16T03:03:45;100963.06;;;13.27;86.16
73341;BME280;61578;52.002;5.468;2022-10-16T03:04:16;100971.91;;;13.28;86.09
73341;BME280;61578;52.002;5.468;2022-10-16T03:04:46;100970.31;;;13.25;86.43
73341;BME280;61578;52.002;5.468;2022-10-16T03:05:17;100970.44;;;13.24;86.44
73341;BME280;61578;52.002;5.468;2022-10-16T03:05:48;100975.03;;;13.22;86.84
73341;BME280;61578;52.002;5.468;2022-10-16T03:06:18;100974.28;;;13.20;86.58
73341;BME280;61578;52.002;5.468;2022-10-16T03:06:49;100969.19;;;13.17;86.89
73341;BME280;61578;52.002;5.468;2022-10-16T03:07:20;100971.94;;;13.15;86.93
73341;BME280;61578;52.002;5.468;2022-10-16T03:07:50;100955.00;;;13.04;86.93
73341;BME280;61578;52.002;5.468;2022-10-16T03:08:22;100960.84;;;13.09;86.81
73341;BME280;61578;52.002;5.468;2022-10-16T03:08:55;100972.81;;;13.16;86.76
73341;BME280;61578;52.002;5.468;2022-10-16T03:09:26;100945.19;;;13.04;86.64
73341;BME280;61578;52.002;5.468;2022-10-16T03:09:56;100966.72;;;13.14;87.18
73341;BME280;61578;52.002;5.468;2022-10-16T03:10:31;100967.91;;;13.10;86.60
73341;BME280;61578;52.002;5.468;2022-10-16T03:11:01;100966.41;;;13.18;86.86
73341;BME280;61578;52.002;5.468;2022-10-16T03:11:32;100966.41;;;13.18;86.80
73341;BME280;61578;52.002;5.468;2022-10-16T03:12:03;100956.59;;;13.06;86.90
73341;BME280;61578;52.002;5.468;2022-10-16T03:12:33;100951.25;;;13.06;86.65
73341;BME280;61578;52.002;5.468;2022-10-16T03:13:04;100946.78;;;13.07;86.93
73341;BME280;61578;52.002;5.468;2022-10-16T03:13:35;100959.78;;;13.11;86.95
73341;BME280;61578;52.002;5.468;2022-10-16T03:14:05;100961.50;;;13.12;86.95
73341;BME280;61578;52.002;5.468;2022-10-16T03:14:36;100928.25;;;12.93;86.92
73341;BME280;61578;52.002;5.468;2022-10-16T03:15:07;100970.34;;;13.13;87.29
73341;BME280;61578;52.002;5.468;2022-10-16T03:15:39;100944.25;;;12.93;87.02